sensor_id;sensor_type;location;lat;lon;timestamp;temperature;humidity
11242;DHT22;5678;52.370;9.006;2023-09-08T00:00:05;15.40;99.90
11242;DHT22;5678;52.370;9.006;2023-09-08T00:02:35;15.40;99.90
11242;DHT22;5678;52.370;9.006;2023-09-08T00:05:04;15.30;99.90
11242;DHT22;5678;52.370;9.006;2023-09-08T00:07:32;15.30;99.90
11242;DHT22;5678;52.370;9.006;2023-09-08T00:10:02;15.50;99.90
11242;DHT22;5678;52.370;9.006;2023-09-08T00:12:29;15.30;99.90
11242;DHT22;5678;52.370;9.006;2023-09-08T00:14:57;15.30;99.90
11242;DHT22;5678;52.370;9.006;2023-09-08T00:17:25;15.20;99.90
11242;DHT22;5678;52.370;9.006;2023-09-08T00:19:53;15.30;99.90
11242;DHT22;5678;52.370;9.006;2023-09-08T00:22:21;15.10;99.90
11242;DHT22;5678;52.370;9.006;2023-09-08T00:24:49;15.10;99.90
11242;DHT22;5678;52.370;9.006;2023-09-08T00:27:18;15.00;99.90
11242;DHT22;5678;52.370;9.006;2023-09-08T00:29:46;14.90;99.90
11242;DHT22;5678;52.370;9.006;2023-09-08T00:32:15;14.90;99.90
11242;DHT22;5678;52.370;9.006;2023-09-08T00:34:43;15.00;99.90
11242;DHT22;5678;52.370;9.006;2023-09-08T00:37:11;14.90;99.90
11242;DHT22;5678;52.370;9.006;2023-09-08T00:39:39;14.80;99.90
11242;DHT22;5678;52.370;9.006;2023-09-08T00:42:07;14.80;99.90
11242;DHT22;5678;52.370;9.006;2023-09-08T00:44:36;15.10;99.90
11242;DHT22;5678;52.370;9.006;2023-09-08T00:47:05;14.80;99.90
11242;DHT22;5678;52.370;9.006;2023-09-08T00:49:33;14.80;99.90
11242;DHT22;5678;52.370;9.006;2023-09-08T00:52:01;14.60;99.90
11242;DHT22;5678;52.370;9.006;2023-09-08T00:54:29;14.60;99.90
11242;DHT22;5678;52.370;9.006;2023-09-08T00:56:57;14.50;99.90
11242;DHT22;5678;52.370;9.006;2023-09-08T00:59:26;14.60;99.90
11242;DHT22;5678;52.370;9.006;2023-09-08T01:01:56;14.40;99.90
11242;DHT22;5678;52.370;9.006;2023-09-08T01:04:24;14.80;42.60
11242;DHT22;5678;52.370;9.006;2023-09-08T01:06:52;15.00;26.90
11242;DHT22;5678;52.370;9.006;2023-09-08T01:09:21;14.70;11.70
11242;DHT22;5678;52.370;9.006;2023-09-08T01:11:49;14.80;43.70
11242;DHT22;5678;52.370;9.006;2023-09-08T01:14:18;14.40;95.60
11242;DHT22;5678;52.370;9.006;2023-09-08T01:16:46;14.80;99.90
11242;DHT22;5678;52.370;9.006;2023-09-08T01:19:17;14.40;99.90
11242;DHT22;5678;52.370;9.006;2023-09-08T01:21:58;14.40;68.30
11242;DHT22;5678;52.370;9.006;2023-09-08T01:24:40;14.40;99.90
11242;DHT22;5678;52.370;9.006;2023-09-08T01:27:14;14.20;15.20
11242;DHT22;5678;52.370;9.006;2023-09-08T01:29:44;14.10;25.60
11242;DHT22;5678;52.370;9.006;2023-09-08T01:32:13;13.80;99.90
11242;DHT22;5678;52.370;9.006;2023-09-08T01:34:41;14.20;99.90
11242;DHT22;5678;52.370;9.006;2023-09-08T01:37:09;14.20;99.90
11242;DHT22;5678;52.370;9.006;2023-09-08T01:39:37;14.20;99.90
11242;DHT22;5678;52.370;9.006;2023-09-08T01:42:05;14.20;99.90
11242;DHT22;5678;52.370;9.006;2023-09-08T01:44:34;14.10;99.90
11242;DHT22;5678;52.370;9.006;2023-09-08T01:47:03;13.90;99.90
11242;DHT22;5678;52.370;9.006;2023-09-08T01:49:31;14.00;97.10
11242;DHT22;5678;52.370;9.006;2023-09-08T01:51:59;13.90;99.90
11242;DHT22;5678;52.370;9.006;2023-09-08T01:54:27;14.00;99.90
11242;DHT22;5678;52.370;9.006;2023-09-08T01:56:55;14.10;95.60
11242;DHT22;5678;52.370;9.006;2023-09-08T01:59:22;14.00;99.90
11242;DHT22;5678;52.370;9.006;2023-09-08T02:01:52;13.90;99.90
11242;DHT22;5678;52.370;9.006;2023-09-08T02:04:20;13.90;99.90
11242;DHT22;5678;52.370;9.006;2023-09-08T02:06:48;13.90;99.90
11242;DHT22;5678;52.370;9.006;2023-09-08T02:09:16;13.80;91.80
11242;DHT22;5678;52.370;9.006;2023-09-08T02:11:44;13.70;99.90
11242;DHT22;5678;52.370;9.006;2023-09-08T02:14:11;13.60;99.90
11242;DHT22;5678;52.370;9.006;2023-09-08T02:16:40;13.70;99.90
11242;DHT22;5678;52.370;9.006;2023-09-08T02:19:09;14.10;99.90
11242;DHT22;5678;52.370;9.006;2023-09-08T02:21:37;13.30;99.90
11242;DHT22;5678;52.370;9.006;2023-09-08T02:24:05;13.50;99.90
11242;DHT22;5678;52.370;9.006;2023-09-08T02:26:33;13.60;98.00
11242;DHT22;5678;52.370;9.006;2023-09-08T02:29:02;13.30;99.90
11242;DHT22;5678;52.370;9.006;2023-09-08T02:31:30;13.50;99.90
11242;DHT22;5678;52.370;9.006;2023-09-08T02:33:58;13.40;99.90
11242;DHT22;5678;52.370;9.006;2023-09-08T02:36:27;13.60;99.90
11242;DHT22;5678;52.370;9.006;2023-09-08T02:38:56;13.40;99.90
11242;DHT22;5678;52.370;9.006;2023-09-08T02:41:24;13.30;99.90
11242;DHT22;5678;52.370;9.006;2023-09-08T02:43:51;13.30;99.90
11242;DHT22;5678;52.370;9.006;2023-09-08T02:46:19;13.40;99.90
11242;DHT22;5678;52.370;9.006;2023-09-08T02:48:48;13.30;99.90
11242;DHT22;5678;52.370;9.006;2023-09-08T02:51:16;13.30;99.90
11242;DHT22;5678;52.370;9.006;2023-09-08T02:53:45;13.20;99.90
11242;DHT22;5678;52.370;9.006;2023-09-08T02:56:13;13.40;99.90
11242;DHT22;5678;52.370;9.006;2023-09-08T02:58:41;13.40;99.90
11242;DHT22;5678;52.370;9.006;2023-09-08T03:01:13;13.20;99.90
11242;DHT22;5678;52.370;9.006;2023-09-08T03:03:42;13.30;99.90
11242;DHT22;5678;52.370;9.006;2023-09-08T03:06:13;13.50;99.90
11242;DHT22;5678;52.370;9.006;2023-09-08T03:08:42;13.30;99.90
11242;DHT22;5678;52.370;9.006;2023-09-08T03:11:11;13.20;99.90
11242;DHT22;5678;52.370;9.006;2023-09-08T03:13:39;13.10;99.90
11242;DHT22;5678;52.370;9.006;2023-09-08T03:16:09;13.10;99.90
11242;DHT22;5678;52.370;9.006;2023-09-08T03:18:37;13.20;99.90
11242;DHT22;5678;52.370;9.006;2023-09-08T03:21:06;13.20;99.90
11242;DHT22;5678;52.370;9.006;2023-09-08T03:23:37;13.00;99.90
11242;DHT22;5678;52.370;9.006;2023-09-08T03:26:06;13.10;99.90
11242;DHT22;5678;52.370;9.006;2023-09-08T03:28:36;12.80;99.90
11242;DHT22;5678;52.370;9.006;2023-09-08T03:31:05;13.20;99.90
11242;DHT22;5678;52.370;9.006;2023-09-08T03:33:33;13.10;99.90
11242;DHT22;5678;52.370;9.006;2023-09-08T03:36:02;12.90;99.90
11242;DHT22;5678;52.370;9.006;2023-09-08T03:38:34;13.00;99.90
11242;DHT22;5678;52.370;9.006;2023-09-08T03:41:03;12.80;99.90
11242;DHT22;5678;52.370;9.006;2023-09-08T03:43:31;12.80;99.90
11242;DHT22;5678;52.370;9.006;2023-09-08T03:46:01;12.80;99.90
11242;DHT22;5678;52.370;9.006;2023-09-08T03:48:29;12.90;99.90
11242;DHT22;5678;52.370;9.006;2023-09-08T03:50:57;12.60;99.90
11242;DHT22;5678;52.370;9.006;2023-09-08T03:53:25;12.70;99.90
11242;DHT22;5678;52.370;9.006;2023-09-08T03:55:53;12.80;99.90
11242;DHT22;5678;52.370;9.006;2023-09-08T03:58:21;12.80;99.90
11242;DHT22;5678;52.370;9.006;2023-09-08T04:00:49;12.60;99.90
11242;DHT22;5678;52.370;9.006;2023-09-08T04:03:19;12.80;99.90
11242;DHT22;5678;52.370;9.006;2023-09-08T04:05:47;12.90;99.90
11242;DHT22;5678;52.370;9.006;2023-09-08T04:08:15;12.50;99.90
11242;DHT22;5678;52.370;9.006;2023-09-08T04:10:43;13.40;99.90
11242;DHT22;5678;52.370;9.006;2023-09-08T04:13:11;12.40;99.90
11242;DHT22;5678;52.370;9.006;2023-09-08T04:15:39;12.30;99.90
11242;DHT22;5678;52.370;9.006;2023-09-08T04:18:09;12.40;99.90
11242;DHT22;5678;52.370;9.006;2023-09-08T04:20:39;14.50;99.90
11242;DHT22;5678;52.370;9.006;2023-09-08T04:23:07;12.30;99.90
11242;DHT22;5678;52.370;9.006;2023-09-08T04:25:35;12.40;99.90
11242;DHT22;5678;52.370;9.006;2023-09-08T04:28:04;12.30;99.90
11242;DHT22;5678;52.370;9.006;2023-09-08T04:30:32;12.40;99.90
11242;DHT22;5678;52.370;9.006;2023-09-08T04:33:00;12.40;99.90
11242;DHT22;5678;52.370;9.006;2023-09-08T04:35:28;12.30;99.90
11242;DHT22;5678;52.370;9.006;2023-09-08T04:37:57;12.30;99.90
11242;DHT22;5678;52.370;9.006;2023-09-08T04:40:29;12.20;99.90
11242;DHT22;5678;52.370;9.006;2023-09-08T04:42:57;12.20;99.90
11242;DHT22;5678;52.370;9.006;2023-09-08T04:45:25;12.20;99.90
11242;DHT22;5678;52.370;9.006;2023-09-08T04:47:53;12.80;99.90
11242;DHT22;5678;52.370;9.006;2023-09-08T04:50:21;12.10;99.90
11242;DHT22;5678;52.370;9.006;2023-09-08T04:52:49;12.40;99.90
11242;DHT22;5678;52.370;9.006;2023-09-08T04:55:18;12.40;99.90
11242;DHT22;5678;52.370;9.006;2023-09-08T04:57:47;11.70;99.90
11242;DHT22;5678;52.370;9.006;2023-09-08T05:00:16;11.90;99.90
11242;DHT22;5678;52.370;9.006;2023-09-08T05:02:44;12.20;99.90
11242;DHT22;5678;52.370;9.006;2023-09-08T05:05:13;11.90;99.90
11242;DHT22;5678;52.370;9.006;2023-09-08T05:07:41;13.10;99.90
11242;DHT22;5678;52.370;9.006;2023-09-08T05:10:09;12.60;99.90
11242;DHT22;5678;52.370;9.006;2023-09-08T05:12:39;12.20;99.90
11242;DHT22;5678;52.370;9.006;2023-09-08T05:15:07;12.20;99.90
11242;DHT22;5678;52.370;9.006;2023-09-08T05:17:41;12.30;99.90
11242;DHT22;5678;52.370;9.006;2023-09-08T05:20:10;12.00;99.90
11242;DHT22;5678;52.370;9.006;2023-09-08T05:22:38;12.30;99.90
11242;DHT22;5678;52.370;9.006;2023-09-08T05:25:06;12.00;99.90
11242;DHT22;5678;52.370;9.006;2023-09-08T05:27:35;12.40;99.90
11242;DHT22;5678;52.370;9.006;2023-09-08T05:30:06;12.80;99.90
11242;DHT22;5678;52.370;9.006;2023-09-08T05:32:34;12.50;99.90
11242;DHT22;5678;52.370;9.006;2023-09-08T05:35:03;12.40;99.90
11242;DHT22;5678;52.370;9.006;2023-09-08T05:37:32;12.60;99.90
11242;DHT22;5678;52.370;9.006;2023-09-08T05:40:00;12.40;99.90
11242;DHT22;5678;52.370;9.006;2023-09-08T05:42:28;12.90;99.90
11242;DHT22;5678;52.370;9.006;2023-09-08T05:44:55;12.40;99.90
11242;DHT22;5678;52.370;9.006;2023-09-08T05:47:25;12.60;99.90
11242;DHT22;5678;52.370;9.006;2023-09-08T05:49:53;12.60;99.90
11242;DHT22;5678;52.370;9.006;2023-09-08T05:52:21;12.60;99.90
11242;DHT22;5678;52.370;9.006;2023-09-08T05:54:49;13.40;99.90
11242;DHT22;5678;52.370;9.006;2023-09-08T05:57:17;13.70;99.90
11242;DHT22;5678;52.370;9.006;2023-09-08T05:59:45;14.10;99.90
11242;DHT22;5678;52.370;9.006;2023-09-08T06:02:13;13.90;99.90
11242;DHT22;5678;52.370;9.006;2023-09-08T06:04:42;14.60;99.90
11242;DHT22;5678;52.370;9.006;2023-09-08T06:07:10;15.50;99.90
11242;DHT22;5678;52.370;9.006;2023-09-08T06:09:38;16.30;35.10
11242;DHT22;5678;52.370;9.006;2023-09-08T06:12:06;16.40;1.00
11242;DHT22;5678;52.370;9.006;2023-09-08T06:14:34;16.80;1.00
11242;DHT22;5678;52.370;9.006;2023-09-08T06:17:03;17.20;1.00
11242;DHT22;5678;52.370;9.006;2023-09-08T06:19:31;17.50;1.00
11242;DHT22;5678;52.370;9.006;2023-09-08T06:22:00;17.80;1.00
11242;DHT22;5678;52.370;9.006;2023-09-08T06:24:28;18.10;1.00
11242;DHT22;5678;52.370;9.006;2023-09-08T06:26:56;18.90;99.90
11242;DHT22;5678;52.370;9.006;2023-09-08T06:29:24;18.90;1.00
11242;DHT22;5678;52.370;9.006;2023-09-08T06:31:52;18.60;1.00
11242;DHT22;5678;52.370;9.006;2023-09-08T06:34:20;19.10;1.00
11242;DHT22;5678;52.370;9.006;2023-09-08T06:36:50;18.50;82.30
11242;DHT22;5678;52.370;9.006;2023-09-08T06:39:19;18.50;1.00
11242;DHT22;5678;52.370;9.006;2023-09-08T06:41:47;18.70;99.90
11242;DHT22;5678;52.370;9.006;2023-09-08T06:44:15;18.40;1.00
11242;DHT22;5678;52.370;9.006;2023-09-08T06:46:43;18.30;80.80
11242;DHT22;5678;52.370;9.006;2023-09-08T06:49:11;18.20;99.90
11242;DHT22;5678;52.370;9.006;2023-09-08T06:51:39;18.50;99.90
11242;DHT22;5678;52.370;9.006;2023-09-08T06:54:06;18.40;99.90
11242;DHT22;5678;52.370;9.006;2023-09-08T06:56:36;18.20;99.90
11242;DHT22;5678;52.370;9.006;2023-09-08T06:59:04;18.30;99.90
11242;DHT22;5678;52.370;9.006;2023-09-08T07:01:32;19.00;1.00
11242;DHT22;5678;52.370;9.006;2023-09-08T07:04:00;19.00;99.90
11242;DHT22;5678;52.370;9.006;2023-09-08T07:06:29;17.90;1.00
11242;DHT22;5678;52.370;9.006;2023-09-08T07:08:57;19.20;99.90
11242;DHT22;5678;52.370;9.006;2023-09-08T07:11:25;18.80;99.90
11242;DHT22;5678;52.370;9.006;2023-09-08T07:13:54;19.20;76.70
11242;DHT22;5678;52.370;9.006;2023-09-08T07:16:22;19.50;76.30
11242;DHT22;5678;52.370;9.006;2023-09-08T07:18:50;19.90;1.00
11242;DHT22;5678;52.370;9.006;2023-09-08T07:21:18;20.40;1.00
11242;DHT22;5678;52.370;9.006;2023-09-08T07:23:46;20.80;38.80
11242;DHT22;5678;52.370;9.006;2023-09-08T07:26:14;21.10;1.00
11242;DHT22;5678;52.370;9.006;2023-09-08T09:56:53;31.00;99.90
11242;DHT22;5678;52.370;9.006;2023-09-08T09:59:22;31.10;99.90
11242;DHT22;5678;52.370;9.006;2023-09-08T10:01:51;31.10;99.10
11242;DHT22;5678;52.370;9.006;2023-09-08T10:04:20;31.10;99.90
11242;DHT22;5678;52.370;9.006;2023-09-08T10:06:48;31.20;99.90
11242;DHT22;5678;52.370;9.006;2023-09-08T10:09:18;31.20;99.90
11242;DHT22;5678;52.370;9.006;2023-09-08T10:11:48;31.30;99.90
11242;DHT22;5678;52.370;9.006;2023-09-08T10:14:18;31.40;98.30
11242;DHT22;5678;52.370;9.006;2023-09-08T10:16:46;31.50;99.90
11242;DHT22;5678;52.370;9.006;2023-09-08T10:19:20;31.40;94.70
11242;DHT22;5678;52.370;9.006;2023-09-08T10:21:51;31.40;98.60
11242;DHT22;5678;52.370;9.006;2023-09-08T10:24:22;31.60;99.40
11242;DHT22;5678;52.370;9.006;2023-09-08T10:26:58;31.60;94.70
11242;DHT22;5678;52.370;9.006;2023-09-08T10:29:30;31.70;99.90
11242;DHT22;5678;52.370;9.006;2023-09-08T10:31:59;31.60;93.30
11242;DHT22;5678;52.370;9.006;2023-09-08T10:34:29;31.70;99.70
11242;DHT22;5678;52.370;9.006;2023-09-08T10:36:58;31.80;96.20
11242;DHT22;5678;52.370;9.006;2023-09-08T10:39:31;31.90;92.50
11242;DHT22;5678;52.370;9.006;2023-09-08T10:42:22;31.90;90.40
11242;DHT22;5678;52.370;9.006;2023-09-08T10:44:57;32.00;94.00
11242;DHT22;5678;52.370;9.006;2023-09-08T10:47:31;32.10;94.60
11242;DHT22;5678;52.370;9.006;2023-09-08T10:50:01;32.00;91.80
11242;DHT22;5678;52.370;9.006;2023-09-08T10:52:30;32.00;99.40
11242;DHT22;5678;52.370;9.006;2023-09-08T10:55:00;31.80;99.90
11242;DHT22;5678;52.370;9.006;2023-09-08T10:57:28;31.70;94.20
11242;DHT22;5678;52.370;9.006;2023-09-08T11:00:01;31.70;99.90
11242;DHT22;5678;52.370;9.006;2023-09-08T11:02:33;31.70;75.90
11242;DHT22;5678;52.370;9.006;2023-09-08T11:05:03;31.80;75.40
11242;DHT22;5678;52.370;9.006;2023-09-08T11:07:32;31.60;67.60
11242;DHT22;5678;52.370;9.006;2023-09-08T11:10:00;31.60;97.90
11242;DHT22;5678;52.370;9.006;2023-09-08T11:12:28;31.70;86.60
11242;DHT22;5678;52.370;9.006;2023-09-08T11:14:56;31.80;91.70
11242;DHT22;5678;52.370;9.006;2023-09-08T11:17:28;32.00;73.00
11242;DHT22;5678;52.370;9.006;2023-09-08T11:19:56;32.00;85.10
11242;DHT22;5678;52.370;9.006;2023-09-08T11:22:25;31.80;70.20
11242;DHT22;5678;52.370;9.006;2023-09-08T11:24:56;31.90;63.40
11242;DHT22;5678;52.370;9.006;2023-09-08T11:27:24;32.00;62.50
11242;DHT22;5678;52.370;9.006;2023-09-08T11:29:52;31.90;86.00
11242;DHT22;5678;52.370;9.006;2023-09-08T11:32:21;31.80;73.50
11242;DHT22;5678;52.370;9.006;2023-09-08T11:34:50;31.80;81.20
11242;DHT22;5678;52.370;9.006;2023-09-08T11:37:18;32.00;80.10
11242;DHT22;5678;52.370;9.006;2023-09-08T11:39:46;32.00;99.80
11242;DHT22;5678;52.370;9.006;2023-09-08T11:42:15;32.00;99.90
11242;DHT22;5678;52.370;9.006;2023-09-08T11:44:43;32.10;58.60
11242;DHT22;5678;52.370;9.006;2023-09-08T11:47:11;32.10;72.30
11242;DHT22;5678;52.370;9.006;2023-09-08T11:49:40;32.30;67.50
11242;DHT22;5678;52.370;9.006;2023-09-08T11:52:09;32.00;64.60
11242;DHT22;5678;52.370;9.006;2023-09-08T11:54:38;32.10;60.00
11242;DHT22;5678;52.370;9.006;2023-09-08T11:57:26;32.20;63.30
11242;DHT22;5678;52.370;9.006;2023-09-08T11:59:54;32.30;61.40
11242;DHT22;5678;52.370;9.006;2023-09-08T12:02:22;32.20;67.90
11242;DHT22;5678;52.370;9.006;2023-09-08T12:04:50;32.10;79.10
11242;DHT22;5678;52.370;9.006;2023-09-08T12:07:21;32.20;73.50
11242;DHT22;5678;52.370;9.006;2023-09-08T12:09:49;32.40;94.40
11242;DHT22;5678;52.370;9.006;2023-09-08T12:12:17;32.30;73.00
11242;DHT22;5678;52.370;9.006;2023-09-08T12:14:45;32.30;85.10
11242;DHT22;5678;52.370;9.006;2023-09-08T12:17:14;32.10;95.20
11242;DHT22;5678;52.370;9.006;2023-09-08T12:19:44;32.00;83.50
11242;DHT22;5678;52.370;9.006;2023-09-08T12:22:12;32.20;95.30
11242;DHT22;5678;52.370;9.006;2023-09-08T12:24:50;32.20;95.50
11242;DHT22;5678;52.370;9.006;2023-09-08T12:27:23;32.30;63.00
11242;DHT22;5678;52.370;9.006;2023-09-08T12:29:53;32.40;99.90
11242;DHT22;5678;52.370;9.006;2023-09-08T12:32:21;32.50;63.70
11242;DHT22;5678;52.370;9.006;2023-09-08T12:34:50;32.60;99.90
11242;DHT22;5678;52.370;9.006;2023-09-08T12:37:22;32.60;60.70
11242;DHT22;5678;52.370;9.006;2023-09-08T12:39:51;32.50;77.20
11242;DHT22;5678;52.370;9.006;2023-09-08T12:42:19;32.50;95.10
11242;DHT22;5678;52.370;9.006;2023-09-08T12:44:48;32.40;99.90
11242;DHT22;5678;52.370;9.006;2023-09-08T12:47:16;32.40;94.50
11242;DHT22;5678;52.370;9.006;2023-09-08T12:49:44;32.40;99.90
11242;DHT22;5678;52.370;9.006;2023-09-08T12:52:12;32.40;99.90
11242;DHT22;5678;52.370;9.006;2023-09-08T12:54:40;32.50;90.20
11242;DHT22;5678;52.370;9.006;2023-09-08T12:57:09;32.40;91.20
11242;DHT22;5678;52.370;9.006;2023-09-08T12:59:37;32.30;83.60
11242;DHT22;5678;52.370;9.006;2023-09-08T13:02:05;32.30;99.90
11242;DHT22;5678;52.370;9.006;2023-09-08T13:04:33;32.30;92.90
11242;DHT22;5678;52.370;9.006;2023-09-08T13:07:01;32.30;71.50
11242;DHT22;5678;52.370;9.006;2023-09-08T13:09:29;32.20;82.40
11242;DHT22;5678;52.370;9.006;2023-09-08T13:11:57;32.20;90.30
11242;DHT22;5678;52.370;9.006;2023-09-08T13:14:26;32.30;88.00
11242;DHT22;5678;52.370;9.006;2023-09-08T13:16:54;32.40;90.50
11242;DHT22;5678;52.370;9.006;2023-09-08T13:19:22;32.40;99.90
11242;DHT22;5678;52.370;9.006;2023-09-08T13:21:50;32.40;82.00
11242;DHT22;5678;52.370;9.006;2023-09-08T13:24:18;32.40;84.70
11242;DHT22;5678;52.370;9.006;2023-09-08T13:26:47;32.40;91.70
11242;DHT22;5678;52.370;9.006;2023-09-08T13:29:16;32.40;63.90
11242;DHT22;5678;52.370;9.006;2023-09-08T13:31:46;32.40;59.30
11242;DHT22;5678;52.370;9.006;2023-09-08T13:34:15;32.30;83.70
11242;DHT22;5678;52.370;9.006;2023-09-08T13:36:43;32.20;98.90
11242;DHT22;5678;52.370;9.006;2023-09-08T13:39:11;32.20;74.70
11242;DHT22;5678;52.370;9.006;2023-09-08T13:41:49;32.20;70.70
11242;DHT22;5678;52.370;9.006;2023-09-08T13:44:18;32.10;54.10
11242;DHT22;5678;52.370;9.006;2023-09-08T13:46:47;32.00;99.90
11242;DHT22;5678;52.370;9.006;2023-09-08T13:49:16;32.00;58.10
11242;DHT22;5678;52.370;9.006;2023-09-08T13:51:46;31.90;51.80
11242;DHT22;5678;52.370;9.006;2023-09-08T13:54:18;31.80;50.00
11242;DHT22;5678;52.370;9.006;2023-09-08T13:56:58;31.80;50.40
11242;DHT22;5678;52.370;9.006;2023-09-08T13:59:28;31.70;52.30
11242;DHT22;5678;52.370;9.006;2023-09-08T14:02:03;31.90;52.90
11242;DHT22;5678;52.370;9.006;2023-09-08T14:04:34;31.80;58.30
11242;DHT22;5678;52.370;9.006;2023-09-08T14:07:07;31.80;54.40
11242;DHT22;5678;52.370;9.006;2023-09-08T14:09:40;31.80;50.30
11242;DHT22;5678;52.370;9.006;2023-09-08T14:12:20;31.80;52.40
11242;DHT22;5678;52.370;9.006;2023-09-08T14:14:48;31.80;50.80
11242;DHT22;5678;52.370;9.006;2023-09-08T14:17:17;31.90;49.90
11242;DHT22;5678;52.370;9.006;2023-09-08T14:19:45;31.90;52.10
11242;DHT22;5678;52.370;9.006;2023-09-08T14:22:13;31.90;52.70
11242;DHT22;5678;52.370;9.006;2023-09-08T14:24:41;31.80;49.90
11242;DHT22;5678;52.370;9.006;2023-09-08T14:27:09;31.70;48.70
11242;DHT22;5678;52.370;9.006;2023-09-08T14:29:37;31.70;52.10
11242;DHT22;5678;52.370;9.006;2023-09-08T14:32:05;31.70;52.00
11242;DHT22;5678;52.370;9.006;2023-09-08T14:34:35;31.80;49.70
11242;DHT22;5678;52.370;9.006;2023-09-08T14:37:03;31.80;47.30
11242;DHT22;5678;52.370;9.006;2023-09-08T14:39:33;31.80;47.40
11242;DHT22;5678;52.370;9.006;2023-09-08T14:42:01;31.80;48.60
11242;DHT22;5678;52.370;9.006;2023-09-08T14:44:29;31.70;47.50
11242;DHT22;5678;52.370;9.006;2023-09-08T14:46:57;31.60;46.00
11242;DHT22;5678;52.370;9.006;2023-09-08T14:49:25;31.70;48.10
11242;DHT22;5678;52.370;9.006;2023-09-08T14:51:54;31.60;48.00
11242;DHT22;5678;52.370;9.006;2023-09-08T14:54:22;31.60;47.00
11242;DHT22;5678;52.370;9.006;2023-09-08T14:56:50;31.50;74.10
11242;DHT22;5678;52.370;9.006;2023-09-08T14:59:18;31.50;47.40
11242;DHT22;5678;52.370;9.006;2023-09-08T15:01:46;31.50;47.60
11242;DHT22;5678;52.370;9.006;2023-09-08T15:04:16;31.60;49.30
11242;DHT22;5678;52.370;9.006;2023-09-08T15:06:44;31.40;46.60
11242;DHT22;5678;52.370;9.006;2023-09-08T15:09:14;31.30;48.20
11242;DHT22;5678;52.370;9.006;2023-09-08T15:11:42;31.30;48.70
11242;DHT22;5678;52.370;9.006;2023-09-08T15:14:10;31.30;46.20
11242;DHT22;5678;52.370;9.006;2023-09-08T15:16:38;31.10;42.40
11242;DHT22;5678;52.370;9.006;2023-09-08T15:19:06;31.10;44.30
11242;DHT22;5678;52.370;9.006;2023-09-08T15:21:34;30.90;45.50
11242;DHT22;5678;52.370;9.006;2023-09-08T15:24:02;30.90;42.80
11242;DHT22;5678;52.370;9.006;2023-09-08T15:26:32;30.70;40.70
11242;DHT22;5678;52.370;9.006;2023-09-08T15:29:00;30.60;44.80
11242;DHT22;5678;52.370;9.006;2023-09-08T15:31:28;30.60;46.30
11242;DHT22;5678;52.370;9.006;2023-09-08T15:33:56;30.60;43.60
11242;DHT22;5678;52.370;9.006;2023-09-08T15:36:24;30.50;44.10
11242;DHT22;5678;52.370;9.006;2023-09-08T15:38:52;30.50;47.70
11242;DHT22;5678;52.370;9.006;2023-09-08T15:41:20;30.50;44.60
11242;DHT22;5678;52.370;9.006;2023-09-08T15:43:50;30.50;45.30
11242;DHT22;5678;52.370;9.006;2023-09-08T15:46:19;30.40;42.00
11242;DHT22;5678;52.370;9.006;2023-09-08T15:48:47;30.30;42.20
11242;DHT22;5678;52.370;9.006;2023-09-08T15:51:15;30.20;44.60
11242;DHT22;5678;52.370;9.006;2023-09-08T15:53:43;30.10;41.20
11242;DHT22;5678;52.370;9.006;2023-09-08T15:56:11;30.00;42.20
11242;DHT22;5678;52.370;9.006;2023-09-08T15:58:39;30.00;42.40
11242;DHT22;5678;52.370;9.006;2023-09-08T16:01:09;30.00;40.90
11242;DHT22;5678;52.370;9.006;2023-09-08T16:03:38;30.00;41.40
11242;DHT22;5678;52.370;9.006;2023-09-08T16:06:07;30.00;41.10
11242;DHT22;5678;52.370;9.006;2023-09-08T16:08:36;29.90;38.30
11242;DHT22;5678;52.370;9.006;2023-09-08T16:11:05;29.80;40.90
11242;DHT22;5678;52.370;9.006;2023-09-08T16:13:32;29.70;37.70
11242;DHT22;5678;52.370;9.006;2023-09-08T16:16:01;29.70;39.50
11242;DHT22;5678;52.370;9.006;2023-09-08T16:18:31;29.70;41.80
11242;DHT22;5678;52.370;9.006;2023-09-08T16:20:59;29.60;41.30
11242;DHT22;5678;52.370;9.006;2023-09-08T16:23:27;29.50;43.60
11242;DHT22;5678;52.370;9.006;2023-09-08T16:25:56;29.50;42.90
11242;DHT22;5678;52.370;9.006;2023-09-08T16:28:24;29.50;44.90
11242;DHT22;5678;52.370;9.006;2023-09-08T16:30:52;29.40;42.50
11242;DHT22;5678;52.370;9.006;2023-09-08T16:33:20;29.30;41.10
11242;DHT22;5678;52.370;9.006;2023-09-08T16:35:49;29.30;40.40
11242;DHT22;5678;52.370;9.006;2023-09-08T16:38:17;29.20;42.00
11242;DHT22;5678;52.370;9.006;2023-09-08T16:40:45;29.10;44.10
11242;DHT22;5678;52.370;9.006;2023-09-08T16:43:15;29.00;44.70
11242;DHT22;5678;52.370;9.006;2023-09-08T16:45:43;29.00;66.00
11242;DHT22;5678;52.370;9.006;2023-09-08T16:48:11;28.90;42.40
11242;DHT22;5678;52.370;9.006;2023-09-08T16:50:40;28.80;44.20
11242;DHT22;5678;52.370;9.006;2023-09-08T16:53:09;28.70;46.80
11242;DHT22;5678;52.370;9.006;2023-09-08T16:55:37;28.60;47.20
11242;DHT22;5678;52.370;9.006;2023-09-08T16:58:05;28.60;44.30
11242;DHT22;5678;52.370;9.006;2023-09-08T17:00:33;28.40;43.00
11242;DHT22;5678;52.370;9.006;2023-09-08T17:03:01;28.40;46.40
11242;DHT22;5678;52.370;9.006;2023-09-08T17:05:29;28.20;54.40
11242;DHT22;5678;52.370;9.006;2023-09-08T17:07:57;28.10;48.50
11242;DHT22;5678;52.370;9.006;2023-09-08T17:10:27;28.00;48.90
11242;DHT22;5678;52.370;9.006;2023-09-08T17:12:55;27.90;47.50
11242;DHT22;5678;52.370;9.006;2023-09-08T17:15:24;27.70;52.10
11242;DHT22;5678;52.370;9.006;2023-09-08T17:17:52;27.60;99.90
11242;DHT22;5678;52.370;9.006;2023-09-08T17:20:20;27.50;66.90
11242;DHT22;5678;52.370;9.006;2023-09-08T17:22:48;27.40;70.40
11242;DHT22;5678;52.370;9.006;2023-09-08T17:25:17;27.20;59.20
11242;DHT22;5678;52.370;9.006;2023-09-08T17:27:46;27.00;57.90
11242;DHT22;5678;52.370;9.006;2023-09-08T17:30:14;26.80;60.00
11242;DHT22;5678;52.370;9.006;2023-09-08T17:32:42;26.60;60.60
11242;DHT22;5678;52.370;9.006;2023-09-08T17:35:10;26.50;61.40
11242;DHT22;5678;52.370;9.006;2023-09-08T17:37:38;26.30;85.70
11242;DHT22;5678;52.370;9.006;2023-09-08T17:40:07;26.10;67.00
11242;DHT22;5678;52.370;9.006;2023-09-08T17:42:36;26.00;63.70
11242;DHT22;5678;52.370;9.006;2023-09-08T17:45:07;25.80;80.50
11242;DHT22;5678;52.370;9.006;2023-09-08T17:47:35;25.60;75.80
11242;DHT22;5678;52.370;9.006;2023-09-08T17:50:03;25.40;90.80
11242;DHT22;5678;52.370;9.006;2023-09-08T17:52:31;25.30;92.00
11242;DHT22;5678;52.370;9.006;2023-09-08T17:55:00;25.00;99.90
11242;DHT22;5678;52.370;9.006;2023-09-08T17:57:30;24.90;95.10
11242;DHT22;5678;52.370;9.006;2023-09-08T17:59:58;24.70;99.90
11242;DHT22;5678;52.370;9.006;2023-09-08T18:02:27;24.60;99.90
11242;DHT22;5678;52.370;9.006;2023-09-08T18:04:55;24.40;99.90
11242;DHT22;5678;52.370;9.006;2023-09-08T18:07:23;24.30;99.90
11242;DHT22;5678;52.370;9.006;2023-09-08T18:09:52;24.10;99.90
11242;DHT22;5678;52.370;9.006;2023-09-08T18:12:20;23.90;99.90
11242;DHT22;5678;52.370;9.006;2023-09-08T18:14:51;23.80;99.90
11242;DHT22;5678;52.370;9.006;2023-09-08T18:17:20;23.60;1.00
11242;DHT22;5678;52.370;9.006;2023-09-08T18:19:50;23.50;99.90
11242;DHT22;5678;52.370;9.006;2023-09-08T18:22:18;23.40;99.90
11242;DHT22;5678;52.370;9.006;2023-09-08T18:24:46;23.70;1.00